Time;durP1;ratioP1;P1;durP2;ratioP2;P2;SDS_P1;SDS_P2;PMS_P1;PMS_P2;Temp;Humidity;BMP_temperature;BMP_pressure;BME280_temperature;BME280_humidity;BME280_pressure;Samples;Min_cycle;Max_cycle;Signal;HPM_P1;HPM_P2
2022/10/02 00:00:27;;;;;;;18.67;4.35;;;22.80;99.90;;;;;;5009723;28;20417;-66
2022/10/02 00:03:22;;;;;;;22.15;4.90;;;22.80;99.90;;;;;;5008641;28;20412;-66
2022/10/02 00:06:02;;;;;;;20.27;4.10;;;22.80;99.90;;;;;;4990877;28;20422;-66
2022/10/02 00:08:40;;;;;;;20.60;4.57;;;22.80;99.90;;;;;;4989000;28;20414;-66
2022/10/02 00:11:24;;;;;;;26.05;4.65;;;22.80;99.90;;;;;;5008906;28;20990;-66
2022/10/02 00:14:01;;;;;;;23.27;4.70;;;22.80;99.90;;;;;;5013207;28;20466;-66
2022/10/02 00:16:41;;;;;;;27.27;4.68;;;22.80;99.90;;;;;;4982946;28;20467;-66
2022/10/02 00:19:18;;;;;;;25.02;5.40;;;22.80;99.90;;;;;;4995967;28;20413;-66
2022/10/02 00:21:56;;;;;;;23.38;4.65;;;22.80;99.90;;;;;;4990528;28;20457;-66
2022/10/02 00:25:07;;;;;;;22.45;4.65;;;22.70;99.90;;;;;;4972548;28;20422;-66
2022/10/02 00:27:45;;;;;;;22.17;4.32;;;22.70;99.90;;;;;;5004102;28;20767;-66
2022/10/02 00:30:17;;;;;;;20.67;4.72;;;22.70;99.90;;;;;;5009536;28;20444;-66
2022/10/02 00:32:57;;;;;;;24.52;4.70;;;22.70;99.90;;;;;;5008379;28;20541;-66
2022/10/02 00:35:48;;;;;;;24.92;5.00;;;22.70;99.90;;;;;;5009322;28;20736;-66
2022/10/02 00:38:40;;;;;;;24.13;4.80;;;22.70;99.90;;;;;;5009611;28;20500;-66
2022/10/02 00:41:34;;;;;;;22.48;4.90;;;22.70;99.90;;;;;;5009450;28;20499;-66
2022/10/02 00:45:03;;;;;;;23.48;4.60;;;22.70;99.90;;;;;;5003103;28;20427;-66
2022/10/02 00:47:48;;;;;;;28.65;5.10;;;22.60;99.90;;;;;;4996723;28;20428;-66
2022/10/02 00:50:40;;;;;;;32.97;4.80;;;22.60;99.90;;;;;;5004484;28;20447;-67
2022/10/02 00:53:40;;;;;;;21.75;4.72;;;22.60;99.90;;;;;;5009509;28;20423;-66
2022/10/02 00:56:18;;;;;;;21.60;4.82;;;22.60;99.90;;;;;;4999403;28;20416;-66
2022/10/02 00:59:45;;;;;;;24.80;4.72;;;22.60;99.90;;;;;;5012580;28;20424;-66
2022/10/02 01:02:49;;;;;;;21.48;4.32;;;22.60;99.90;;;;;;4979228;28;20420;-66
2022/10/02 01:05:16;;;;;;;24.57;5.13;;;22.60;99.90;;;;;;4997943;28;20975;-66
2022/10/02 01:07:50;;;;;;;28.90;5.50;;;22.60;99.90;;;;;;5015789;28;20440;-66
2022/10/02 01:10:17;;;;;;;27.30;4.93;;;22.60;99.90;;;;;;5009198;28;20771;-66
2022/10/02 01:12:44;;;;;;;25.30;5.20;;;22.60;99.90;;;;;;5020732;28;20428;-66
2022/10/02 01:15:18;;;;;;;26.98;4.70;;;22.60;99.90;;;;;;5016090;28;20919;-66
2022/10/02 01:17:48;;;;;;;23.55;4.65;;;22.60;99.90;;;;;;5001589;28;20558;-67
2022/10/02 01:20:22;;;;;;;21.17;4.90;;;22.60;99.90;;;;;;5009004;28;20413;-66
2022/10/02 01:23:11;;;;;;;25.15;4.32;;;22.60;99.90;;;;;;5002753;28;20424;-66
2022/10/02 01:25:37;;;;;;;26.47;4.87;;;22.60;99.90;;;;;;5007495;28;20424;-66
2022/10/02 01:28:04;;;;;;;25.15;4.93;;;22.60;99.90;;;;;;5005218;28;20473;-66
2022/10/02 01:30:35;;;;;;;25.65;4.30;;;22.60;99.90;;;;;;4973097;28;20471;-66
2022/10/02 01:33:04;;;;;;;23.48;5.05;;;22.60;99.90;;;;;;5007181;28;20969;-67
2022/10/02 01:35:36;;;;;;;21.80;4.18;;;22.60;99.90;;;;;;5006242;28;20426;-66
2022/10/02 01:38:12;;;;;;;22.13;4.90;;;22.60;99.90;;;;;;5021980;28;20416;-66
2022/10/02 01:40:40;;;;;;;25.33;4.78;;;22.60;99.90;;;;;;5016692;28;20416;-66
2022/10/02 01:43:24;;;;;;;21.38;4.80;;;22.60;99.90;;;;;;5026032;28;20408;-66
2022/10/02 01:46:31;;;;;;;27.10;4.78;;;22.60;99.90;;;;;;5014918;28;20908;-67
2022/10/02 01:49:34;;;;;;;23.13;5.10;;;22.60;99.90;;;;;;5014080;28;20428;-66
2022/10/02 01:52:28;;;;;;;23.20;4.60;;;22.60;99.90;;;;;;5003734;28;20476;-66
2022/10/02 01:55:37;;;;;;;21.10;4.55;;;22.60;99.90;;;;;;5013761;28;20976;-66
2022/10/02 01:58:16;;;;;;;24.35;5.05;;;22.60;99.90;;;;;;5010068;28;20456;-66
2022/10/02 02:01:07;;;;;;;21.45;4.68;;;22.60;99.90;;;;;;4997127;28;20419;-66
2022/10/02 02:03:54;;;;;;;21.83;4.50;;;22.60;99.90;;;;;;5017906;28;20424;-66
2022/10/02 02:06:38;;;;;;;24.02;4.95;;;22.50;99.90;;;;;;5015006;28;20416;-66
2022/10/02 02:10:03;;;;;;;18.90;4.43;;;22.50;99.90;;;;;;5012976;28;20447;-67
2022/10/02 02:13:09;;;;;;;23.08;5.18;;;22.50;99.90;;;;;;5013379;28;20475;-66
2022/10/02 02:16:33;;;;;;;22.00;4.50;;;22.50;99.90;;;;;;4963788;28;20437;-66
2022/10/02 02:19:09;;;;;;;23.08;4.60;;;22.50;99.90;;;;;;4951675;28;20875;-66
2022/10/02 02:21:46;;;;;;;20.63;4.45;;;22.50;99.90;;;;;;5014630;28;20462;-66
2022/10/02 02:24:25;;;;;;;24.35;4.50;;;22.50;99.90;;;;;;5014864;28;20423;-66
2022/10/02 02:26:58;;;;;;;26.92;5.43;;;22.50;99.90;;;;;;4999385;28;20447;-66
2022/10/02 02:29:29;;;;;;;22.23;4.50;;;22.60;99.90;;;;;;5014731;28;20408;-66
2022/10/02 02:31:58;;;;;;;19.85;4.80;;;22.60;99.90;;;;;;5011743;28;20444;-66
2022/10/02 02:34:44;;;;;;;24.70;4.80;;;22.60;99.90;;;;;;5006991;28;20432;-66
2022/10/02 02:37:18;;;;;;;22.37;4.67;;;22.60;99.90;;;;;;5030154;28;20411;-66
2022/10/02 02:40:06;;;;;;;23.52;4.40;;;22.60;99.90;;;;;;5014888;28;20514;-66
2022/10/02 02:42:43;;;;;;;21.00;4.53;;;22.60;99.90;;;;;;5011706;28;20419;-66
2022/10/02 02:45:23;;;;;;;18.23;4.07;;;22.60;99.90;;;;;;5017175;28;20418;-67
2022/10/02 02:48:13;;;;;;;25.00;4.72;;;22.60;99.90;;;;;;4992599;28;21197;-66
2022/10/02 02:50:50;;;;;;;22.42;4.43;;;22.70;99.90;;;;;;5011229;28;20416;-66
2022/10/02 02:53:36;;;;;;;18.20;4.63;;;22.70;99.90;;;;;;5010365;28;20412;-66
2022/10/02 02:56:09;;;;;;;28.65;4.80;;;22.60;99.90;;;;;;5011493;28;20408;-66
2022/10/02 02:58:50;;;;;;;21.98;4.22;;;22.60;99.90;;;;;;4992161;28;20417;-66
2022/10/02 03:01:16;;;;;;;19.77;4.22;;;22.60;99.90;;;;;;5011335;28;20462;-66
2022/10/02 03:03:43;;;;;;;24.70;5.20;;;22.60;99.90;;;;;;5018795;28;20466;-66
2022/10/02 03:06:16;;;;;;;23.23;4.68;;;22.70;99.90;;;;;;4993618;28;20486;-66
2022/10/02 03:08:46;;;;;;;23.27;4.65;;;22.70;99.90;;;;;;4994086;28;20780;-66
2022/10/02 03:11:54;;;;;;;21.13;4.47;;;22.70;99.90;;;;;;5014977;28;20417;-66
2022/10/02 03:14:45;;;;;;;26.83;5.25;;;22.80;99.90;;;;;;5000635;28;20491;-66
2022/10/02 03:18:09;;;;;;;22.50;4.75;;;22.80;99.90;;;;;;5010437;28;20408;-66
2022/10/02 03:21:06;;;;;;;22.77;4.35;;;22.90;99.90;;;;;;5006728;28;20420;-66
2022/10/02 03:24:22;;;;;;;22.35;4.60;;;22.80;99.90;;;;;;5000484;28;20416;-66
2022/10/02 03:27:19;;;;;;;22.85;4.35;;;22.80;99.90;;;;;;5010634;28;20424;-66
2022/10/02 03:30:11;;;;;;;25.38;4.63;;;22.80;99.90;;;;;;5002173;28;20432;-66
2022/10/02 03:32:42;;;;;;;26.58;4.75;;;22.80;99.90;;;;;;5009125;28;20425;-66
2022/10/02 03:35:12;;;;;;;21.23;4.70;;;22.70;99.90;;;;;;5021776;28;20409;-66
2022/10/02 03:37:43;;;;;;;25.15;4.50;;;22.70;99.90;;;;;;5010547;28;20874;-66
2022/10/02 03:40:09;;;;;;;22.83;4.37;;;22.70;99.90;;;;;;4981671;28;20451;-66
2022/10/02 03:42:37;;;;;;;28.80;4.63;;;22.60;99.90;;;;;;4982141;28;20436;-66
2022/10/02 03:45:05;;;;;;;26.50;4.73;;;22.60;99.90;;;;;;5009927;28;20421;-66
2022/10/02 03:47:32;;;;;;;20.67;4.78;;;22.60;99.90;;;;;;5010609;28;20879;-66
2022/10/02 03:49:58;;;;;;;23.42;4.72;;;22.60;99.90;;;;;;5017633;28;20534;-66
2022/10/02 03:52:25;;;;;;;21.73;4.90;;;22.70;99.90;;;;;;4976733;28;20416;-66
2022/10/02 03:55:32;;;;;;;25.33;4.65;;;22.70;99.90;;;;;;5010024;28;20419;-66
2022/10/02 03:58:04;;;;;;;18.58;4.30;;;22.70;99.90;;;;;;5020900;28;20885;-66
2022/10/02 04:00:40;;;;;;;24.80;4.70;;;22.70;99.90;;;;;;5023524;28;20422;-66
2022/10/02 04:03:17;;;;;;;24.10;4.43;;;22.60;99.90;;;;;;5005949;28;20499;-66
2022/10/02 04:05:52;;;;;;;29.13;4.68;;;22.70;99.90;;;;;;4989257;28;20410;-66
2022/10/02 04:08:37;;;;;;;23.15;4.40;;;22.70;99.90;;;;;;4997480;28;20884;-66
2022/10/02 04:11:30;;;;;;;26.92;4.80;;;22.70;99.90;;;;;;5000670;28;21108;-67
2022/10/02 04:14:06;;;;;;;20.27;4.18;;;22.70;99.90;;;;;;4991633;28;20397;-66
2022/10/02 04:16:43;;;;;;;25.38;5.10;;;22.70;99.90;;;;;;5023328;28;20404;-66
2022/10/02 04:19:31;;;;;;;15.45;3.72;;;22.70;99.90;;;;;;5009852;28;20413;-66
2022/10/02 04:22:38;;;;;;;17.38;4.28;;;22.80;99.90;;;;;;5006616;28;20410;-66
2022/10/02 04:25:17;;;;;;;19.13;4.03;;;22.80;99.90;;;;;;4987412;28;20500;-68
2022/10/02 04:28:16;;;;;;;25.17;4.25;;;22.80;99.90;;;;;;5008462;28;20412;-66
2022/10/02 04:30:42;;;;;;;18.88;3.92;;;22.90;99.90;;;;;;5019663;28;20428;-66
2022/10/02 04:33:21;;;;;;;23.08;4.68;;;23.10;99.90;;;;;;4976034;28;20404;-66
2022/10/02 04:36:44;;;;;;;19.65;4.18;;;23.10;99.90;;;;;;5010434;28;20502;-66
2022/10/02 04:39:41;;;;;;;12.52;3.30;;;23.10;99.90;;;;;;4913482;29;20433;-66
2022/10/02 04:43:20;;;;;;;19.20;3.85;;;23.10;99.90;;;;;;4997170;28;20509;-66
2022/10/02 04:46:30;;;;;;;17.40;3.53;;;23.10;99.90;;;;;;4933914;28;20444;-66
2022/10/02 04:49:24;;;;;;;14.63;3.17;;;23.20;99.90;;;;;;4942090;29;20436;-66
2022/10/02 04:52:39;;;;;;;14.43;3.20;;;23.30;99.90;;;;;;4999479;28;20425;-66
2022/10/02 04:55:40;;;;;;;15.57;3.30;;;23.30;99.90;;;;;;4971182;28;20424;-66
2022/10/02 04:58:41;;;;;;;12.48;3.22;;;23.30;99.90;;;;;;5004534;28;20428;-66
2022/10/02 05:01:19;;;;;;;12.80;2.95;;;23.40;99.90;;;;;;4972225;28;20422;-66
2022/10/02 05:04:08;;;;;;;17.10;3.47;;;23.50;99.90;;;;;;4993882;28;20743;-66
2022/10/02 05:07:06;;;;;;;15.05;3.42;;;23.50;99.90;;;;;;5009321;28;20417;-66
2022/10/02 05:09:48;;;;;;;19.48;3.47;;;23.80;99.90;;;;;;5006404;28;20408;-66
2022/10/02 05:12:25;;;;;;;11.65;3.15;;;24.00;99.90;;;;;;5010804;28;20520;-67
2022/10/02 05:15:22;;;;;;;13.07;2.90;;;24.10;99.90;;;;;;4991080;28;20409;-67
2022/10/02 05:18:35;;;;;;;18.17;3.72;;;24.20;99.90;;;;;;5005182;28;20424;-66
2022/10/02 05:21:11;;;;;;;17.15;3.17;;;24.30;99.90;;;;;;4989464;28;20414;-67
2022/10/02 05:24:13;;;;;;;17.17;3.50;;;24.50;99.90;;;;;;4989464;28;20418;-66
2022/10/02 05:27:00;;;;;;;16.33;3.28;;;24.50;99.90;;;;;;4989458;28;20876;-66
2022/10/02 05:29:52;;;;;;;16.77;3.67;;;24.50;99.90;;;;;;4973511;28;20421;-66
2022/10/02 05:32:30;;;;;;;13.38;2.90;;;24.50;99.90;;;;;;5016044;28;20482;-66
2022/10/02 05:35:20;;;;;;;16.73;3.35;;;24.50;99.90;;;;;;4991393;28;20444;-66
2022/10/02 05:38:01;;;;;;;14.73;3.20;;;24.60;99.90;;;;;;5010936;28;20416;-66
2022/10/02 05:41:11;;;;;;;14.17;3.30;;;24.60;99.90;;;;;;5007537;28;20424;-66
2022/10/02 05:43:46;;;;;;;14.57;3.28;;;24.70;99.90;;;;;;5003991;28;20466;-66
2022/10/02 05:46:25;;;;;;;14.45;3.42;;;24.80;99.90;;;;;;5010019;28;20416;-67
2022/10/02 05:49:14;;;;;;;15.48;3.70;;;24.90;99.90;;;;;;5006974;28;20551;-66
2022/10/02 05:51:56;;;;;;;17.27;3.53;;;25.00;99.90;;;;;;4999192;28;20440;-66
2022/10/02 05:54:52;;;;;;;13.20;3.58;;;25.00;99.90;;;;;;5002249;28;20196;-67
2022/10/02 05:57:56;;;;;;;17.33;3.22;;;25.10;99.90;;;;;;5016620;28;20192;-67
2022/10/02 06:01:06;;;;;;;18.95;3.40;;;25.20;99.90;;;;;;5007833;28;20193;-67
2022/10/02 06:03:58;;;;;;;22.40;3.40;;;25.30;99.90;;;;;;4994321;28;20201;-67
2022/10/02 06:06:40;;;;;;;22.60;3.78;;;25.40;99.90;;;;;;5005998;28;20582;-67
2022/10/02 06:09:40;;;;;;;17.52;3.15;;;25.50;99.90;;;;;;5000932;28;20204;-67
2022/10/02 06:12:17;;;;;;;18.42;3.72;;;25.50;99.90;;;;;;4972427;28;20204;-67
2022/10/02 06:15:14;;;;;;;11.10;2.83;;;25.60;99.90;;;;;;5006206;28;20181;-67
2022/10/02 06:18:04;;;;;;;19.55;3.35;;;25.60;99.90;;;;;;4970883;28;20193;-67
2022/10/02 06:20:42;;;;;;;23.67;3.58;;;25.60;99.90;;;;;;5009089;28;20189;-66
2022/10/02 06:23:21;;;;;;;11.68;3.33;;;25.60;99.90;;;;;;5011336;28;20582;-67
2022/10/02 06:26:00;;;;;;;12.43;3.42;;;25.60;99.90;;;;;;5000488;28;20291;-67
2022/10/02 06:28:48;;;;;;;15.00;3.55;;;25.70;99.90;;;;;;5003249;28;20199;-67
2022/10/02 06:31:45;;;;;;;14.90;3.38;;;25.80;99.90;;;;;;5013166;28;20209;-67
2022/10/02 06:34:13;;;;;;;23.17;4.55;;;25.90;99.90;;;;;;5013882;28;20218;-66
2022/10/02 06:37:10;;;;;;;23.92;4.00;;;25.90;99.90;;;;;;5011761;28;20631;-67
2022/10/02 06:39:52;;;;;;;21.73;4.07;;;25.90;99.90;;;;;;5016541;28;20639;-67
2022/10/02 06:43:10;;;;;;;15.93;3.25;;;25.90;99.90;;;;;;5014221;28;20268;-67
2022/10/02 06:46:31;;;;;;;12.20;3.60;;;25.90;99.90;;;;;;4996259;28;20193;-66
2022/10/02 06:49:21;;;;;;;25.95;3.70;;;25.90;99.90;;;;;;4964261;28;20280;-67
2022/10/02 06:52:06;;;;;;;17.95;3.13;;;26.00;99.90;;;;;;4978355;28;20178;-66
2022/10/02 06:55:25;;;;;;;12.32;2.97;;;25.90;99.90;;;;;;5011302;28;20193;-67
2022/10/02 06:58:29;;;;;;;23.02;3.90;;;26.00;99.90;;;;;;4964556;28;20571;-68
2022/10/02 07:01:34;;;;;;;18.67;3.45;;;26.10;98.50;;;;;;5004694;28;20231;-67
2022/10/02 07:04:34;;;;;;;14.35;3.53;;;26.30;98.30;;;;;;5014944;28;20199;-66
2022/10/02 07:07:33;;;;;;;23.00;3.65;;;26.50;97.50;;;;;;4976419;28;20208;-67
2022/10/02 07:10:13;;;;;;;23.77;3.55;;;26.80;96.70;;;;;;5019973;28;20209;-66
2022/10/02 07:13:18;;;;;;;17.25;3.63;;;26.80;97.10;;;;;;5008623;28;20188;-66
2022/10/02 07:16:33;;;;;;;15.15;3.40;;;26.90;96.80;;;;;;4996275;28;20192;-67
2022/10/02 07:19:23;;;;;;;16.67;2.75;;;26.90;96.80;;;;;;5022721;28;20638;-67
2022/10/02 07:22:26;;;;;;;24.83;4.05;;;27.10;96.50;;;;;;5005366;28;20185;-67
2022/10/02 07:25:34;;;;;;;32.65;4.32;;;27.10;96.50;;;;;;5010725;28;20196;-67
2022/10/02 07:28:38;;;;;;;19.83;3.88;;;27.20;95.20;;;;;;5013367;28;20200;-67
2022/10/02 07:31:41;;;;;;;24.75;5.35;;;27.80;95.00;;;;;;5011973;28;20221;-67
2022/10/02 07:34:43;;;;;;;19.65;5.22;;;27.90;96.20;;;;;;4973837;28;20189;-67
2022/10/02 07:37:41;;;;;;;21.80;4.70;;;27.80;96.70;;;;;;4964243;28;20189;-67
2022/10/02 07:40:24;;;;;;;27.27;4.00;;;27.90;96.40;;;;;;5002348;28;20192;-67
2022/10/02 07:43:15;;;;;;;18.63;3.83;;;27.90;95.10;;;;;;5010548;28;20189;-67
2022/10/02 07:46:22;;;;;;;16.95;3.38;;;28.00;95.10;;;;;;4996848;28;20189;-67
2022/10/02 07:49:19;;;;;;;15.30;3.72;;;27.90;93.60;;;;;;4992106;28;20189;-67
2022/10/02 07:52:18;;;;;;;20.60;4.50;;;28.10;94.90;;;;;;5006526;28;20906;-67
2022/10/02 07:55:21;;;;;;;20.73;3.45;;;28.00;94.90;;;;;;5003396;28;20201;-67
2022/10/02 07:58:11;;;;;;;22.23;3.20;;;28.00;95.20;;;;;;5001559;28;20191;-67
2022/10/02 08:00:52;;;;;;;16.65;3.03;;;28.30;94.30;;;;;;5004997;28;20275;-67
2022/10/02 08:03:42;;;;;;;15.68;3.55;;;28.40;93.70;;;;;;5001662;28;20185;-67
2022/10/02 08:06:08;;;;;;;15.00;3.25;;;28.50;93.80;;;;;;5009204;28;20197;-67
2022/10/02 08:08:56;;;;;;;26.23;3.50;;;28.50;94.30;;;;;;5002218;28;20231;-67
2022/10/02 08:11:46;;;;;;;19.58;3.45;;;28.80;92.50;;;;;;5009991;28;20320;-67
2022/10/02 08:14:25;;;;;;;19.98;3.53;;;29.30;90.20;;;;;;4997801;28;20533;-67
2022/10/02 08:17:01;;;;;;;16.88;3.30;;;29.30;91.10;;;;;;4998716;28;20193;-67
2022/10/02 08:19:44;;;;;;;14.07;3.38;;;29.20;91.50;;;;;;5004942;28;20211;-67
2022/10/02 08:22:28;;;;;;;20.40;3.17;;;29.20;91.30;;;;;;5010638;28;20205;-66
2022/10/02 08:25:05;;;;;;;17.52;3.55;;;29.40;90.90;;;;;;5002815;28;20208;-67
2022/10/02 08:27:57;;;;;;;18.88;3.53;;;29.60;89.90;;;;;;4992912;28;20195;-67
2022/10/02 08:30:24;;;;;;;22.55;3.67;;;29.60;90.30;;;;;;4993103;28;20227;-67
2022/10/02 08:32:52;;;;;;;17.33;3.33;;;29.80;88.50;;;;;;5001170;28;20185;-67
2022/10/02 08:35:20;;;;;;;10.27;2.95;;;30.00;89.40;;;;;;4988556;28;20207;-67
2022/10/02 08:38:27;;;;;;;17.35;3.67;;;30.20;88.30;;;;;;4996025;28;20665;-67
2022/10/02 08:41:41;;;;;;;14.80;3.30;;;30.30;88.60;;;;;;4943161;28;20206;-67
2022/10/02 08:45:03;;;;;;;22.30;3.58;;;30.40;87.90;;;;;;4984046;28;20204;-67
2022/10/02 08:48:22;;;;;;;18.45;3.83;;;30.40;87.20;;;;;;5016352;28;20189;-67
2022/10/02 08:51:38;;;;;;;27.58;3.47;;;30.60;86.10;;;;;;5006247;28;20213;-67
2022/10/02 08:54:42;;;;;;;10.82;3.00;;;30.90;85.30;;;;;;4953312;28;20353;-67
2022/10/02 08:57:22;;;;;;;12.90;3.13;;;30.70;86.90;;;;;;5012525;28;20179;-67
2022/10/02 09:00:36;;;;;;;19.15;2.90;;;30.60;86.80;;;;;;5022564;28;20195;-67
2022/10/02 09:03:46;;;;;;;14.90;2.88;;;30.50;89.20;;;;;;5012242;28;20258;-67
2022/10/02 09:06:18;;;;;;;18.35;2.97;;;30.70;86.40;;;;;;5001819;28;20242;-67
2022/10/02 09:09:28;;;;;;;10.10;3.00;;;31.00;85.50;;;;;;4994409;28;20243;-67
2022/10/02 09:12:41;;;;;;;15.98;3.20;;;30.90;85.20;;;;;;5003820;28;20185;-67
2022/10/02 09:15:39;;;;;;;17.05;3.33;;;31.20;83.80;;;;;;4992076;28;20215;-67
2022/10/02 09:18:28;;;;;;;17.13;3.10;;;31.60;82.50;;;;;;5010338;28;20180;-67
2022/10/02 09:21:09;;;;;;;16.60;3.47;;;31.50;84.30;;;;;;5008736;28;20211;-67
2022/10/02 09:24:19;;;;;;;12.43;3.13;;;31.90;80.60;;;;;;5010299;28;20231;-67
2022/10/02 09:27:18;;;;;;;16.60;3.45;;;32.00;82.10;;;;;;4949059;29;20218;-67
2022/10/02 09:30:14;;;;;;;15.30;3.50;;;32.00;82.50;;;;;;4992112;28;20286;-67
2022/10/02 09:32:58;;;;;;;17.05;3.58;;;32.10;82.20;;;;;;5010065;28;20894;-67
2022/10/02 09:36:03;;;;;;;18.70;3.20;;;32.20;82.30;;;;;;5008559;28;20669;-67
2022/10/02 09:39:15;;;;;;;20.67;3.35;;;32.30;81.40;;;;;;5009869;28;20223;-67
2022/10/02 09:42:41;;;;;;;15.55;3.33;;;32.60;80.70;;;;;;5008372;28;20226;-65
2022/10/02 09:45:43;;;;;;;16.50;3.67;;;32.90;79.80;;;;;;4952110;28;20223;-65
2022/10/02 09:48:23;;;;;;;;;;;33.10;77.70;;;;;;5010017;28;20034;-65
2022/10/02 09:51:26;;;;;;;;;;;33.30;77.90;;;;;;4992415;28;19913;-65
2022/10/02 09:54:02;;;;;;;;;;;33.20;76.30;;;;;;4992367;28;19964;-65
2022/10/02 09:56:54;;;;;;;;;;;33.20;78.00;;;;;;5011893;28;19929;-66
2022/10/02 09:59:20;;;;;;;;;;;33.50;76.80;;;;;;5013714;28;19913;-66
2022/10/02 10:02:24;;;;;;;;;;;33.80;76.40;;;;;;4996484;28;19924;-66
2022/10/02 10:04:52;;;;;;;;;;;33.90;75.40;;;;;;5014050;28;19919;-66
2022/10/02 10:08:28;;;;;;;;;;;33.80;75.60;;;;;;5013789;28;19956;-66
2022/10/02 10:11:16;;;;;;;;;;;34.20;75.10;;;;;;4921759;29;20001;-66
2022/10/02 10:13:59;;;;;;;;;;;34.20;74.70;;;;;;4917833;29;20622;-66
2022/10/02 10:17:06;;;;;;;;;;;34.40;75.00;;;;;;4975275;28;19913;-66
2022/10/02 10:19:52;;;;;;;;;;;34.40;75.70;;;;;;5013675;28;20012;-66
2022/10/02 10:22:37;;;;;;;;;;;34.60;74.50;;;;;;4995935;28;20331;-66
2022/10/02 10:25:27;;;;;;;;;;;36.70;73.70;;;;;;4995680;28;19996;-66
2022/10/02 10:28:17;;;;;;;19.65;3.38;;;36.90;71.60;;;;;;5013028;28;20281;-66
2022/10/02 10:31:20;;;;;;;16.85;3.63;;;36.20;70.40;;;;;;5012925;28;21012;-66
2022/10/02 10:34:08;;;;;;;14.30;3.25;;;35.40;72.10;;;;;;5010340;28;20622;-67
2022/10/02 10:40:34;;;;;;;16.10;3.97;;;35.30;71.20;;;;;;5003405;28;20659;-67
2022/10/02 10:43:30;;;;;;;28.83;4.10;;;35.30;71.20;;;;;;5011567;28;20681;-66
2022/10/02 10:46:53;;;;;;;20.00;3.50;;;35.30;71.60;;;;;;5012637;28;20336;-67
2022/10/02 10:50:01;;;;;;;26.15;4.00;;;35.20;73.00;;;;;;5010374;28;20177;-66
2022/10/02 10:53:15;;;;;;;17.55;3.30;;;34.80;71.70;;;;;;5011249;28;20204;-66
2022/10/02 10:56:06;;;;;;;15.90;3.58;;;34.60;72.40;;;;;;4994758;28;20207;-66
2022/10/02 10:58:41;;;;;;;27.17;3.63;;;34.40;70.90;;;;;;5012453;28;21005;-66
2022/10/02 11:01:41;;;;;;;17.10;3.67;;;34.30;76.30;;;;;;5011008;28;20566;-66
2022/10/02 11:04:46;;;;;;;21.02;3.80;;;34.20;74.80;;;;;;4993783;28;20204;-66
2022/10/02 11:07:46;;;;;;;14.32;3.17;;;34.10;75.40;;;;;;4992129;28;20178;-66
2022/10/02 11:10:34;;;;;;;14.48;3.70;;;34.20;76.00;;;;;;4992529;28;20202;-66
2022/10/02 11:13:35;;;;;;;15.45;3.90;;;34.10;78.20;;;;;;4991319;28;20185;-66
2022/10/02 11:16:37;;;;;;;19.42;3.65;;;34.10;73.80;;;;;;4992511;28;20635;-66
2022/10/02 11:19:15;;;;;;;15.25;3.45;;;34.10;74.50;;;;;;4974529;28;20188;-66
2022/10/02 11:22:30;;;;;;;18.70;4.22;;;34.20;78.20;;;;;;4992504;28;20189;-66
2022/10/02 11:25:12;;;;;;;22.23;4.75;;;34.10;80.30;;;;;;4961766;28;20208;-66
2022/10/02 11:28:20;;;;;;;19.27;3.30;;;33.90;81.40;;;;;;4992422;28;20283;-66
2022/10/02 11:31:25;;;;;;;23.55;3.70;;;33.90;82.90;;;;;;4992005;28;20603;-66
2022/10/02 11:34:20;;;;;;;14.63;3.40;;;33.80;82.50;;;;;;4952177;28;20193;-66
2022/10/02 11:37:42;;;;;;;16.20;3.55;;;33.80;81.30;;;;;;4992394;28;20803;-66
2022/10/02 11:40:23;;;;;;;19.95;4.07;;;33.70;79.40;;;;;;4974262;28;20636;-66
2022/10/02 11:43:12;;;;;;;19.70;3.95;;;33.70;80.00;;;;;;4974725;28;20189;-66
2022/10/02 11:46:11;;;;;;;18.77;3.60;;;33.80;75.90;;;;;;4990822;28;20276;-66
2022/10/02 11:49:04;;;;;;;18.75;3.50;;;33.80;76.60;;;;;;4980257;28;20173;-66
2022/10/02 11:52:03;;;;;;;15.48;3.05;;;33.70;76.10;;;;;;5009856;28;20256;-66
2022/10/02 11:54:57;;;;;;;17.92;3.85;;;33.60;75.70;;;;;;5009896;28;20177;-66
2022/10/02 11:57:51;;;;;;;12.50;3.28;;;33.60;75.30;;;;;;5011233;28;20542;-66
2022/10/02 12:01:08;;;;;;;14.70;3.33;;;33.70;77.40;;;;;;5009539;28;20199;-66
2022/10/02 12:04:17;;;;;;;19.85;3.20;;;33.70;73.30;;;;;;4977261;28;20185;-66
2022/10/02 12:07:12;;;;;;;15.40;3.30;;;33.80;74.70;;;;;;4968464;28;20193;-66
2022/10/02 12:10:44;;;;;;;14.65;3.05;;;33.80;73.00;;;;;;4964178;28;20579;-66
2022/10/02 12:13:14;;;;;;;15.88;4.00;;;33.80;74.50;;;;;;4949798;28;20225;-66
2022/10/02 12:15:59;;;;;;;21.00;3.20;;;33.60;75.20;;;;;;4991296;28;20244;-66
2022/10/02 12:19:28;;;;;;;16.00;3.17;;;33.50;75.50;;;;;;4973616;28;20260;-66
2022/10/02 12:29:23;;;;;;;16.65;3.13;;;33.40;73.90;;;;;;4979297;28;20177;-66
2022/10/02 12:32:11;;;;;;;16.95;3.17;;;33.40;75.90;;;;;;4989150;28;20355;-66
2022/10/02 12:35:19;;;;;;;12.68;3.30;;;33.30;77.30;;;;;;5010811;28;20188;-66
2022/10/02 12:38:26;;;;;;;17.90;3.72;;;33.30;76.80;;;;;;5007991;28;20268;-66
2022/10/02 12:41:07;;;;;;;14.70;2.88;;;33.20;77.30;;;;;;5008718;28;20192;-66
2022/10/02 12:44:04;;;;;;;11.48;2.83;;;33.10;79.30;;;;;;5008968;28;20215;-66
2022/10/02 12:46:51;;;;;;;22.73;3.88;;;33.00;80.90;;;;;;5010413;28;20172;-66
2022/10/02 12:50:04;;;;;;;15.50;2.97;;;33.10;80.00;;;;;;5008090;28;20196;-66
2022/10/02 12:53:57;;;;;;;14.60;2.78;;;33.10;74.40;;;;;;5010437;28;20638;-66
2022/10/02 12:57:53;;;;;;;17.67;3.38;;;33.00;74.40;;;;;;4903732;29;20203;-66
2022/10/02 13:00:49;;;;;;;12.18;2.80;;;32.90;74.70;;;;;;4866462;28;20207;-66
2022/10/02 13:04:03;;;;;;;12.02;2.83;;;32.80;75.30;;;;;;4988892;28;20936;-66
2022/10/02 13:07:25;;;;;;;20.70;3.08;;;32.60;74.80;;;;;;4993686;28;20255;-66
2022/10/02 13:10:14;;;;;;;10.65;3.00;;;32.60;73.20;;;;;;5008380;28;20276;-66
2022/10/02 13:13:19;;;;;;;14.80;3.20;;;32.60;74.90;;;;;;5009059;28;20267;-66
2022/10/02 13:16:43;;;;;;;17.60;2.78;;;32.50;76.20;;;;;;5008460;28;20238;-66
2022/10/02 13:19:35;;;;;;;13.23;3.20;;;32.40;76.10;;;;;;4954507;28;20184;-66
2022/10/02 13:22:39;;;;;;;16.67;3.08;;;32.30;76.50;;;;;;5009831;28;20657;-66
2022/10/02 13:25:36;;;;;;;16.45;3.08;;;32.30;78.00;;;;;;5009701;28;20646;-66
2022/10/02 13:28:19;;;;;;;18.70;3.38;;;32.20;76.80;;;;;;5008188;28;20188;-66
2022/10/02 13:31:33;;;;;;;19.55;3.28;;;32.20;76.60;;;;;;5007748;28;20216;-66
2022/10/02 13:34:17;;;;;;;20.38;2.90;;;32.20;75.00;;;;;;5009748;28;20181;-66
2022/10/02 13:37:14;;;;;;;19.73;3.65;;;32.20;74.80;;;;;;5008350;28;21021;-66
2022/10/02 13:40:11;;;;;;;14.43;2.95;;;32.10;74.30;;;;;;5009343;28;20231;-66
2022/10/02 13:42:52;;;;;;;13.95;3.25;;;32.10;75.60;;;;;;4991916;28;20247;-66
2022/10/02 13:45:39;;;;;;;20.33;2.97;;;31.90;77.50;;;;;;5009581;28;20655;-66
2022/10/02 13:48:54;;;;;;;12.90;3.20;;;31.80;75.70;;;;;;4991915;28;20215;-66
2022/10/02 13:51:40;;;;;;;19.20;3.55;;;31.70;77.90;;;;;;5009380;28;20205;-66
2022/10/02 13:54:31;;;;;;;23.85;4.00;;;31.60;76.30;;;;;;4962361;28;20528;-66
2022/10/02 13:57:36;;;;;;;16.63;3.78;;;31.70;75.10;;;;;;5014839;28;20184;-66
2022/10/02 14:00:39;;;;;;;18.35;3.88;;;31.70;74.60;;;;;;5016643;28;20193;-66
2022/10/02 14:03:32;;;;;;;29.73;4.70;;;31.80;73.30;;;;;;5006270;28;20677;-66
2022/10/02 14:06:21;;;;;;;19.73;3.88;;;31.70;73.60;;;;;;4991604;28;20242;-66
2022/10/02 14:09:20;;;;;;;26.35;4.15;;;31.80;72.90;;;;;;4991417;28;20272;-66
2022/10/02 14:12:19;;;;;;;23.50;4.72;;;31.80;73.70;;;;;;4991628;28;20295;-66
2022/10/02 14:15:14;;;;;;;19.98;3.90;;;31.70;73.70;;;;;;5005132;28;20704;-66
2022/10/02 14:18:13;;;;;;;23.27;3.38;;;31.70;73.20;;;;;;4972040;28;20204;-66
2022/10/02 14:21:02;;;;;;;31.70;4.10;;;31.60;73.40;;;;;;4989686;28;20205;-66
2022/10/02 14:23:55;;;;;;;24.67;4.05;;;31.70;73.10;;;;;;4972524;28;20190;-66
2022/10/02 14:26:44;;;;;;;29.25;4.30;;;31.70;73.30;;;;;;4989714;28;20194;-66
2022/10/02 14:29:39;;;;;;;27.45;5.18;;;31.70;72.80;;;;;;4989837;28;20575;-66
2022/10/02 14:32:09;;;;;;;23.63;5.05;;;31.60;73.30;;;;;;5004485;28;20193;-66
2022/10/02 14:34:55;;;;;;;23.10;5.07;;;31.50;72.40;;;;;;4991005;28;20181;-67
2022/10/02 14:37:40;;;;;;;30.83;5.25;;;31.40;72.90;;;;;;4988812;28;20572;-66
2022/10/02 14:40:16;;;;;;;20.58;3.90;;;31.30;73.30;;;;;;5009105;28;20176;-66
2022/10/02 14:43:21;;;;;;;24.90;4.60;;;31.20;72.70;;;;;;4992076;28;20890;-66
2022/10/02 14:46:19;;;;;;;24.30;4.32;;;31.10;72.70;;;;;;5005599;28;20192;-68
2022/10/02 14:49:23;;;;;;;28.98;4.72;;;31.00;73.50;;;;;;5011242;28;20181;-68
2022/10/02 14:52:11;;;;;;;22.30;3.75;;;30.90;73.50;;;;;;5010967;28;20270;-68
2022/10/02 14:55:15;;;;;;;19.08;4.35;;;30.90;73.90;;;;;;5003989;28;20188;-68
2022/10/02 14:58:27;;;;;;;22.35;4.35;;;30.80;73.80;;;;;;5020804;28;20808;-65